createdAt,value
2018-04-15T00:00:39.536Z,98.50
2018-04-15T00:03:07.074Z,98.80
2018-04-15T00:05:34.543Z,98.70
2018-04-15T00:08:02.005Z,98.40
2018-04-15T00:10:29.471Z,98.50
2018-04-15T00:12:56.935Z,98.80
2018-04-15T00:15:24.399Z,98.50
2018-04-15T00:17:51.872Z,98.50
2018-04-15T00:20:19.333Z,98.40
2018-04-15T00:22:46.807Z,98.60
2018-04-15T00:25:14.269Z,98.30
2018-04-15T00:27:41.821Z,98.50
2018-04-15T00:30:09.287Z,98.40
2018-04-15T00:32:36.749Z,98.30
2018-04-15T00:35:04.321Z,98.40
2018-04-15T00:37:31.783Z,98.60
2018-04-15T00:57:17.075Z,99.00
2018-04-15T00:59:44.551Z,99.30
2018-04-15T01:02:12.062Z,99.20
2018-04-15T01:04:39.596Z,99.10
2018-04-15T01:07:07.067Z,98.90
2018-04-15T01:09:34.527Z,98.80
2018-04-15T01:29:20.460Z,98.80
2018-04-15T01:31:47.927Z,99.10
2018-04-15T01:34:15.418Z,99.00
2018-04-15T01:36:42.884Z,98.90
2018-04-15T01:39:10.345Z,99.00
2018-04-15T01:41:37.819Z,99.00
2018-04-15T01:44:05.277Z,99.00
2018-04-15T02:15:22.241Z,99.20
2018-04-15T02:17:49.704Z,99.10
2018-04-15T02:28:56.676Z,99.20
2018-04-15T02:31:24.140Z,99.00
2018-04-15T02:33:51.595Z,99.20
2018-04-15T02:36:19.051Z,99.20
2018-04-15T02:38:47.079Z,99.20
2018-04-15T02:41:14.659Z,99.10
2018-04-15T02:43:42.715Z,99.70
2018-04-15T02:46:10.272Z,99.50
2018-04-15T02:48:37.829Z,99.60
2018-04-15T03:08:22.525Z,99.90
2018-04-15T03:10:50.001Z,99.90
2018-04-15T03:13:17.484Z,99.90
2018-04-15T03:15:44.950Z,99.90
2018-04-15T03:18:12.409Z,99.70
2018-04-15T03:20:39.912Z,99.90
2018-04-15T03:23:07.377Z,99.70
2018-04-15T03:25:34.832Z,99.90
2018-04-15T03:28:02.303Z,99.90
2018-04-15T03:47:46.072Z,99.90
2018-04-15T03:50:13.577Z,99.90
2018-04-15T03:52:41.044Z,99.90
2018-04-15T03:55:08.505Z,99.90
2018-04-15T03:57:35.972Z,99.90
2018-04-15T04:00:03.464Z,99.90
2018-04-15T04:02:31.004Z,99.90
2018-04-15T04:04:58.561Z,99.90
2018-04-15T04:07:26.215Z,99.90
2018-04-15T04:09:53.775Z,99.90
2018-04-15T04:12:21.229Z,99.90
2018-04-15T04:14:48.720Z,99.90
2018-04-15T04:17:16.188Z,99.90
2018-04-15T04:19:55.468Z,99.90
2018-04-15T04:22:35.563Z,99.90
2018-04-15T04:28:06.300Z,99.90
2018-04-15T04:30:34.536Z,99.90
2018-04-15T04:33:01.997Z,99.90
2018-04-15T04:35:29.447Z,99.90
2018-04-15T04:37:57.709Z,99.90
2018-04-15T04:40:25.167Z,99.90
2018-04-15T04:42:52.629Z,99.90
2018-04-15T04:45:20.851Z,99.90
2018-04-15T04:47:48.373Z,99.90
2018-04-15T04:50:15.819Z,99.90
2018-04-15T04:52:43.285Z,99.90
2018-04-15T04:55:10.738Z,99.90
2018-04-15T04:57:38.962Z,99.90
2018-04-15T05:00:07.225Z,99.90
2018-04-15T05:02:34.688Z,99.90
2018-04-15T05:05:02.148Z,99.90
2018-04-15T05:07:29.596Z,99.90
2018-04-15T05:09:57.816Z,99.90
2018-04-15T05:12:25.334Z,99.90
2018-04-15T05:14:52.794Z,99.80
2018-04-15T05:17:20.247Z,99.70
2018-04-15T05:19:48.505Z,99.30
2018-04-15T05:22:15.953Z,99.30
2018-04-15T05:24:43.414Z,99.10
2018-04-15T05:27:11.639Z,98.90
2018-04-15T05:29:39.194Z,98.90
2018-04-15T05:32:07.421Z,98.70
2018-04-15T05:34:34.880Z,98.60
2018-04-15T05:37:02.337Z,98.60
2018-04-15T05:39:29.934Z,99.00
2018-04-15T05:41:57.409Z,98.70
2018-04-15T05:44:24.893Z,98.40
2018-04-15T05:46:52.372Z,98.60
2018-04-15T05:49:19.824Z,98.70
2018-04-15T05:51:47.289Z,98.50
2018-04-15T05:54:15.514Z,98.20
2018-04-15T05:56:43.005Z,98.20
2018-04-15T05:59:10.461Z,97.90
2018-04-15T06:01:37.926Z,98.10
2018-04-15T06:04:06.195Z,98.20
2018-04-15T06:06:33.658Z,98.20
2018-04-15T06:09:01.152Z,98.20
2018-04-15T06:11:28.600Z,97.90
2018-04-15T06:13:56.108Z,97.70
2018-04-15T06:16:23.594Z,97.90
2018-04-15T06:18:51.088Z,97.90
2018-04-15T06:21:18.553Z,97.40
2018-04-15T06:23:46.012Z,97.70
2018-04-15T06:26:14.272Z,97.30
2018-04-15T06:28:41.748Z,97.30
2018-04-15T06:31:09.206Z,97.30
2018-04-15T06:33:36.661Z,97.10
2018-04-15T06:36:04.907Z,96.70
2018-04-15T06:38:32.366Z,96.70
2018-04-15T06:41:00.618Z,96.10
2018-04-15T06:43:28.126Z,96.10
2018-04-15T06:45:55.618Z,96.00
2018-04-15T06:48:23.112Z,95.70
2018-04-15T06:50:50.564Z,95.00
2018-04-15T06:53:18.018Z,94.70
2018-04-15T06:55:46.256Z,94.40
2018-04-15T06:58:13.723Z,94.40
2018-04-15T07:00:41.956Z,94.70
2018-04-15T07:03:09.611Z,94.70
2018-04-15T07:05:37.107Z,94.90
2018-04-15T07:08:04.569Z,94.00
2018-04-15T07:10:32.786Z,92.70
2018-04-15T07:13:00.292Z,92.70
2018-04-15T07:15:27.764Z,91.80
2018-04-15T07:17:55.227Z,90.40
2018-04-15T07:20:23.469Z,87.20
2018-04-15T07:22:50.950Z,87.20
2018-04-15T07:25:18.439Z,87.80
2018-04-15T07:27:45.938Z,87.20
2018-04-15T07:30:13.512Z,85.60
2018-04-15T07:32:40.977Z,79.30
2018-04-15T07:35:08.434Z,72.80
2018-04-15T07:37:35.889Z,64.10
2018-04-15T07:40:03.350Z,59.10
2018-04-15T07:42:30.814Z,56.10
2018-04-15T07:44:58.726Z,54.60
2018-04-15T07:47:26.180Z,52.30
2018-04-15T07:49:53.697Z,54.70
2018-04-15T07:52:21.152Z,54.60
2018-04-15T07:54:48.626Z,53.50
2018-04-15T07:57:16.082Z,53.80
2018-04-15T07:59:43.589Z,55.30
2018-04-15T08:02:11.816Z,51.60
2018-04-15T08:04:39.312Z,51.50
2018-04-15T08:07:06.796Z,49.70
2018-04-15T08:09:34.273Z,46.50
2018-04-15T08:12:01.793Z,45.50
2018-04-15T08:14:29.255Z,39.60
2018-04-15T08:16:56.705Z,36.60
2018-04-15T08:19:24.167Z,35.80
2018-04-15T08:21:52.480Z,31.40
2018-04-15T08:24:19.940Z,31.30
2018-04-15T08:26:47.404Z,30.10
2018-04-15T08:29:14.881Z,30.40
2018-04-15T08:31:42.419Z,28.60
2018-04-15T08:34:10.647Z,28.90
2018-04-15T08:36:38.108Z,29.20
2018-04-15T08:39:06.365Z,28.20
2018-04-15T08:41:33.828Z,28.20
2018-04-15T08:44:01.490Z,29.00
2018-04-15T08:46:29.037Z,28.80
2018-04-15T08:48:56.550Z,28.90
2018-04-15T08:51:24.007Z,28.10
2018-04-15T08:53:51.465Z,25.10
2018-04-15T08:56:18.951Z,25.20
2018-04-15T08:58:47.263Z,29.90
2018-04-15T09:01:14.749Z,29.80
2018-04-15T09:03:42.833Z,29.50
2018-04-15T09:06:10.340Z,32.70
2018-04-15T09:08:38.484Z,29.80
2018-04-15T09:11:06.133Z,29.20
2018-04-15T09:13:33.593Z,31.40
2018-04-15T09:16:02.564Z,33.00
2018-04-15T09:18:30.026Z,33.30
2018-04-15T09:20:58.246Z,29.20
2018-04-15T09:23:25.755Z,29.20
2018-04-15T09:25:53.177Z,29.50
2018-04-15T09:28:20.822Z,29.20
2018-04-15T09:30:53.996Z,29.30
2018-04-15T09:33:22.243Z,31.50
2018-04-15T09:35:49.797Z,31.40
2018-04-15T09:38:17.332Z,30.70
2018-04-15T09:40:44.821Z,33.40
2018-04-15T09:43:15.080Z,35.60
2018-04-15T09:45:42.657Z,35.50
2018-04-15T09:48:10.136Z,37.00
2018-04-15T09:50:37.604Z,36.20
2018-04-15T09:53:05.081Z,34.60
2018-04-15T09:55:32.540Z,33.80
2018-04-15T09:58:00.123Z,33.70
2018-04-15T10:00:28.362Z,34.90
2018-04-15T10:02:55.815Z,34.90
2018-04-15T10:05:23.269Z,32.40
2018-04-15T10:07:51.502Z,26.40
2018-04-15T10:10:19.759Z,27.00
2018-04-15T10:12:47.216Z,26.90
2018-04-15T10:15:14.672Z,27.20
2018-04-15T10:17:42.888Z,24.50
2018-04-15T10:20:10.350Z,24.40
2018-04-15T10:22:37.934Z,24.50
2018-04-15T10:25:05.507Z,24.10
2018-04-15T10:27:33.169Z,24.60
2018-04-15T10:30:00.629Z,23.50
2018-04-15T10:32:28.137Z,23.20
2018-04-15T10:34:57.124Z,22.30
2018-04-15T10:37:24.678Z,22.30
2018-04-15T10:39:52.905Z,24.00
2018-04-15T10:42:20.362Z,23.90
2018-04-15T10:44:47.830Z,22.60
2018-04-15T10:47:15.419Z,23.90
2018-04-15T10:49:43.717Z,24.60
2018-04-15T10:52:11.976Z,23.60
2018-04-15T10:54:39.598Z,23.60
2018-04-15T10:57:07.150Z,22.90
2018-04-15T10:59:34.724Z,23.10
2018-04-15T11:02:02.204Z,23.70
2018-04-15T11:04:30.120Z,23.70
2018-04-15T11:06:57.592Z,22.40
2018-04-15T11:09:25.093Z,23.90
2018-04-15T11:11:53.381Z,25.40
2018-04-15T11:14:20.850Z,25.10
2018-04-15T11:16:48.415Z,24.90
2018-04-15T11:19:16.652Z,23.10
2018-04-15T11:21:44.136Z,23.10
2018-04-15T11:24:11.600Z,24.50
2018-04-15T11:26:39.149Z,24.20
2018-04-15T11:29:07.416Z,28.70
2018-04-15T11:31:34.877Z,28.70
2018-04-15T11:34:02.392Z,28.50
2018-04-15T11:36:29.857Z,26.50
2018-04-15T11:38:57.356Z,27.00
2018-04-15T11:41:24.812Z,28.30
2018-04-15T11:43:52.270Z,27.60
2018-04-15T11:46:20.501Z,29.00
2018-04-15T11:48:48.058Z,29.00
2018-04-15T11:51:15.489Z,27.10
2018-04-15T11:53:42.975Z,27.80
2018-04-15T11:56:10.437Z,29.50
2018-04-15T11:58:37.923Z,27.80
2018-04-15T12:01:05.426Z,27.00
2018-04-15T12:03:32.890Z,27.60
2018-04-15T12:06:00.405Z,28.50
2018-04-15T12:08:27.862Z,28.80
2018-04-15T12:10:55.325Z,28.00
2018-04-15T12:13:22.800Z,28.80
2018-04-15T12:15:51.025Z,28.30
2018-04-15T12:18:18.690Z,28.30
2018-04-15T12:20:46.161Z,27.30
2018-04-15T12:23:14.391Z,28.10
2018-04-15T12:25:41.913Z,28.10
2018-04-15T12:28:09.376Z,28.60
2018-04-15T12:30:36.901Z,30.80
2018-04-15T12:33:04.368Z,29.90
2018-04-15T12:35:32.012Z,28.70
2018-04-15T12:37:59.499Z,27.70
2018-04-15T12:40:26.980Z,26.70
2018-04-15T12:42:54.502Z,26.80
2018-04-15T12:45:21.976Z,27.80
2018-04-15T12:47:49.441Z,27.40
2018-04-15T12:50:16.958Z,26.60
2018-04-15T12:52:44.425Z,27.50
2018-04-15T12:55:11.893Z,26.80
2018-04-15T12:57:39.612Z,28.10
2018-04-15T13:00:07.188Z,28.60
2018-04-15T13:02:34.672Z,31.70
2018-04-15T13:05:02.153Z,28.90
2018-04-15T13:07:29.619Z,29.40
2018-04-15T13:09:57.077Z,27.60
2018-04-15T13:12:24.544Z,27.10
2018-04-15T13:14:52.816Z,27.70
2018-04-15T13:17:20.289Z,27.70
2018-04-15T13:19:47.793Z,28.20
2018-04-15T13:22:15.375Z,28.90
2018-04-15T13:24:42.830Z,28.70
2018-04-15T13:27:10.354Z,27.80
2018-04-15T13:29:38.633Z,27.20
2018-04-15T13:32:06.105Z,27.10
2018-04-15T13:34:33.570Z,29.20
2018-04-15T13:37:01.044Z,27.90
2018-04-15T13:39:29.281Z,29.10
2018-04-15T13:41:56.758Z,29.10
2018-04-15T13:44:24.226Z,29.10
2018-04-15T13:46:51.745Z,32.00
2018-04-15T13:49:19.209Z,29.00
2018-04-15T13:51:46.670Z,28.90
2018-04-15T13:54:14.921Z,29.70
2018-04-15T13:56:42.416Z,29.70
2018-04-15T13:59:09.880Z,29.20
2018-04-15T14:01:37.351Z,29.40
2018-04-15T14:04:04.844Z,29.50
2018-04-15T14:06:32.307Z,29.70
2018-04-15T14:08:59.777Z,29.60
2018-04-15T14:11:27.238Z,31.50
2018-04-15T14:13:54.805Z,30.70
2018-04-15T14:16:22.296Z,29.50
2018-04-15T14:18:49.794Z,28.10
2018-04-15T14:21:18.026Z,29.00
2018-04-15T14:23:45.493Z,28.40
2018-04-15T14:26:13.765Z,30.00
2018-04-15T14:28:41.282Z,30.00
2018-04-15T14:31:08.820Z,29.90
2018-04-15T14:33:36.373Z,31.00
2018-04-15T14:36:03.969Z,31.50
2018-04-15T14:38:31.434Z,32.40
2018-04-15T14:40:58.980Z,32.30
2018-04-15T14:43:26.448Z,32.40
2018-04-15T14:45:53.916Z,32.50
2018-04-15T14:48:21.397Z,32.60
2018-04-15T14:50:48.908Z,32.30
2018-04-15T14:53:16.395Z,32.10
2018-04-15T14:55:43.872Z,32.30
2018-04-15T14:58:12.101Z,32.50
2018-04-15T15:00:39.698Z,32.50
2018-04-15T15:03:07.238Z,31.50
2018-04-15T15:05:34.722Z,31.80
2018-04-15T15:08:02.180Z,32.10
2018-04-15T15:10:29.746Z,32.20
2018-04-15T15:12:59.373Z,32.10
2018-04-15T15:15:26.930Z,32.10
2018-04-15T15:17:54.408Z,32.00
2018-04-15T15:20:21.902Z,33.30
2018-04-15T15:22:49.445Z,34.10
2018-04-15T15:25:16.869Z,35.20
2018-04-15T15:27:44.336Z,33.80
2018-04-15T15:30:11.900Z,35.40
2018-04-15T15:32:39.361Z,35.10
2018-04-15T15:35:06.827Z,33.40
2018-04-15T15:37:35.057Z,35.20
2018-04-15T15:40:02.569Z,35.20
2018-04-15T15:42:30.098Z,35.30
2018-04-15T15:44:58.327Z,35.20
2018-04-15T15:47:26.029Z,35.00
2018-04-15T15:49:53.536Z,36.00
2018-04-15T15:52:20.998Z,36.10
2018-04-15T15:54:48.452Z,35.90
2018-04-15T15:57:16.684Z,34.30
2018-04-15T15:59:44.176Z,34.20
2018-04-15T16:02:11.797Z,35.00
2018-04-15T16:04:39.270Z,34.40
2018-04-15T16:07:06.741Z,35.10
2018-04-15T16:09:34.426Z,35.10
2018-04-15T16:12:02.075Z,34.20
2018-04-15T16:14:36.271Z,36.90
2018-04-15T16:17:03.737Z,36.90
2018-04-15T16:19:31.193Z,36.70
2018-04-15T16:21:59.421Z,36.70
2018-04-15T16:24:27.042Z,36.70
2018-04-15T16:26:54.717Z,37.30
2018-04-15T16:29:23.052Z,36.80
2018-04-15T16:31:50.628Z,36.70
2018-04-15T16:34:18.238Z,37.90
2018-04-15T16:36:45.739Z,38.20
2018-04-15T16:39:14.024Z,39.80
2018-04-15T16:41:43.026Z,40.30
2018-04-15T16:44:10.605Z,40.20
2018-04-15T16:46:38.092Z,39.80
2018-04-15T16:49:05.553Z,41.30
2018-04-15T16:51:33.004Z,42.10
2018-04-15T16:54:00.556Z,40.90
2018-04-15T16:56:28.857Z,42.00
2018-04-15T16:58:56.409Z,41.90
2018-04-15T17:01:23.912Z,42.90
2018-04-15T17:03:51.360Z,44.10
2018-04-15T17:06:18.817Z,45.20
2018-04-15T17:08:47.052Z,45.90
2018-04-15T17:12:51.283Z,46.60
2018-04-15T17:15:18.768Z,48.30
2018-04-15T17:17:47.071Z,48.60
2018-04-15T17:20:15.363Z,47.60
2018-04-15T17:22:42.837Z,48.10
2018-04-15T17:25:10.305Z,49.10
2018-04-15T17:27:37.757Z,49.40
2018-04-15T17:30:05.276Z,47.60
2018-04-15T17:32:32.740Z,49.00
2018-04-15T17:35:00.242Z,47.10
2018-04-15T17:37:27.729Z,47.80
2018-04-15T17:39:55.189Z,47.80
2018-04-15T17:42:22.710Z,48.60
2018-04-15T17:44:50.168Z,48.70
2018-04-15T17:47:18.337Z,49.50
2018-04-15T17:49:45.856Z,49.70
2018-04-15T17:52:13.344Z,50.40
2018-04-15T17:54:40.821Z,50.40
2018-04-15T17:57:08.410Z,55.70
2018-04-15T17:59:35.866Z,58.50
2018-04-15T18:02:03.326Z,58.30
2018-04-15T18:04:32.633Z,61.60
2018-04-15T18:07:00.186Z,61.60
2018-04-15T18:09:27.660Z,63.00
2018-04-15T18:11:55.153Z,63.40
2018-04-15T18:14:22.640Z,60.60
2018-04-15T18:16:51.004Z,60.00
2018-04-15T18:19:19.349Z,62.80
2018-04-15T18:21:46.936Z,62.80
2018-04-15T18:24:14.426Z,62.50
2018-04-15T18:26:41.907Z,64.20
2018-04-15T18:29:09.373Z,66.10
2018-04-15T18:31:36.833Z,65.60
2018-04-15T18:34:04.477Z,66.80
2018-04-15T18:36:32.700Z,66.10
2018-04-15T18:39:00.925Z,68.30
2018-04-15T18:41:28.473Z,68.30
2018-04-15T18:43:56.041Z,67.60
2018-04-15T18:46:23.495Z,67.40
2018-04-15T18:48:50.960Z,67.90
2018-04-15T18:51:18.417Z,66.60
2018-04-15T18:53:45.877Z,66.60
2018-04-15T18:56:13.417Z,67.10
2018-04-15T18:58:40.949Z,66.50
2018-04-15T19:01:08.426Z,66.40
2018-04-15T19:03:35.879Z,68.10
2018-04-15T19:06:03.335Z,67.70
2018-04-15T19:08:30.804Z,69.10
2018-04-15T19:10:58.255Z,69.10
2018-04-15T19:13:25.703Z,69.20
2018-04-15T19:15:53.167Z,70.00
2018-04-15T19:18:20.655Z,70.50
2018-04-15T19:20:48.082Z,71.20
2018-04-15T19:23:15.545Z,71.20
2018-04-15T19:25:43.009Z,70.80
2018-04-15T19:28:10.471Z,70.80
2018-04-15T19:30:37.920Z,70.20
2018-04-15T19:33:05.386Z,70.50
2018-04-15T19:35:32.858Z,71.40
2018-04-15T19:38:00.319Z,70.70
2018-04-15T19:40:27.779Z,71.20
2018-04-15T19:42:55.268Z,71.60
2018-04-15T19:45:23.492Z,71.60
2018-04-15T19:47:50.943Z,71.50
2018-04-15T19:50:18.400Z,71.90
2018-04-15T19:52:45.862Z,71.90
2018-04-15T19:55:13.319Z,71.90
2018-04-15T19:57:40.776Z,72.20
2018-04-15T20:00:08.232Z,73.10
2018-04-15T20:02:35.689Z,73.40
2018-04-15T20:05:03.159Z,72.70
2018-04-15T20:07:30.623Z,72.40
2018-04-15T20:09:58.084Z,72.90
2018-04-15T20:12:25.544Z,73.10
2018-04-15T20:14:53.006Z,72.90
2018-04-15T20:17:20.461Z,73.40
2018-04-15T20:19:47.927Z,72.50
2018-04-15T20:22:16.148Z,72.30
2018-04-15T20:24:43.614Z,72.30
2018-04-15T20:27:11.067Z,73.10
2018-04-15T20:29:38.531Z,73.10
2018-04-15T20:32:05.987Z,73.10
2018-04-15T20:34:33.435Z,73.60
2018-04-15T20:37:00.883Z,73.50
2018-04-15T20:39:28.335Z,73.30
2018-04-15T20:41:55.796Z,73.00
2018-04-15T20:44:23.258Z,73.00
2018-04-15T20:46:50.715Z,73.00
2018-04-15T20:49:18.178Z,73.30
2018-04-15T20:51:45.633Z,73.80
2018-04-15T20:54:13.088Z,74.00
2018-04-15T20:56:40.537Z,74.80
2018-04-15T20:59:07.996Z,74.90
2018-04-15T21:01:35.440Z,75.30
2018-04-15T21:04:03.293Z,75.00
2018-04-15T21:06:30.745Z,75.60
2018-04-15T21:08:58.195Z,75.30
2018-04-15T21:11:25.647Z,75.00
2018-04-15T21:13:53.858Z,76.30
2018-04-15T21:16:21.315Z,76.30
2018-04-15T21:18:48.763Z,76.60
2018-04-15T21:21:16.219Z,76.20
2018-04-15T21:23:43.673Z,76.50
2018-04-15T21:26:11.140Z,76.20
2018-04-15T21:28:38.588Z,75.60
2018-04-15T21:31:06.047Z,75.50
2018-04-15T21:33:33.504Z,78.40
2018-04-15T21:36:00.971Z,80.30
2018-04-15T21:38:28.427Z,79.80
2018-04-15T21:40:55.896Z,82.30
2018-04-15T21:43:23.353Z,82.40
2018-04-15T21:45:50.825Z,80.30
2018-04-15T21:48:18.276Z,80.10
2018-04-15T21:50:45.727Z,78.40
2018-04-15T21:53:13.183Z,78.30
2018-04-15T21:55:40.631Z,77.30
2018-04-15T21:58:08.090Z,77.40
2018-04-15T22:00:35.544Z,77.40
2018-04-15T22:03:03.008Z,77.50
2018-04-15T22:05:30.466Z,78.10
2018-04-15T22:07:57.922Z,78.80
2018-04-15T22:10:25.387Z,78.70
2018-04-15T22:12:52.832Z,79.10
2018-04-15T22:15:20.296Z,79.20
2018-04-15T22:17:47.748Z,80.30
2018-04-15T22:20:15.214Z,80.50
2018-04-15T22:22:42.663Z,80.10
2018-04-15T22:25:10.125Z,80.50
2018-04-15T22:27:37.576Z,81.00
2018-04-15T22:30:05.031Z,80.80
2018-04-15T22:32:32.475Z,81.20
2018-04-15T22:34:59.928Z,81.60
2018-04-15T22:37:27.386Z,82.60
2018-04-15T22:39:54.845Z,82.70
2018-04-15T22:42:22.295Z,82.80
2018-04-15T22:44:49.743Z,82.80
2018-04-15T22:47:17.200Z,84.00
2018-04-15T22:49:44.653Z,84.00
2018-04-15T22:52:12.113Z,83.30
2018-04-15T22:54:39.563Z,83.30
2018-04-15T22:57:12.713Z,83.90
2018-04-15T22:59:40.924Z,83.30
2018-04-15T23:02:08.406Z,83.30
2018-04-15T23:04:35.856Z,84.50
2018-04-15T23:07:03.316Z,85.20
2018-04-15T23:09:30.769Z,85.80
2018-04-15T23:11:58.228Z,85.70
2018-04-15T23:14:25.675Z,86.10
2018-04-15T23:16:53.131Z,84.90
2018-04-15T23:19:20.588Z,83.60
2018-04-15T23:21:48.047Z,82.60
2018-04-15T23:24:15.495Z,82.00
2018-04-15T23:26:42.946Z,82.50
2018-04-15T23:29:10.412Z,82.00
2018-04-15T23:31:37.865Z,82.00
2018-04-15T23:34:05.323Z,84.00
2018-04-15T23:36:32.772Z,84.90
2018-04-15T23:39:00.256Z,84.90
2018-04-15T23:41:27.703Z,86.40
2018-04-15T23:43:55.170Z,84.90
2018-04-15T23:46:22.616Z,86.30
2018-04-15T23:48:50.081Z,88.60
2018-04-15T23:51:17.533Z,89.70
2018-04-15T23:53:44.993Z,90.10
2018-04-15T23:56:12.448Z,90.20
2018-04-15T23:58:39.899Z,90.80
